Time;durP1;ratioP1;P1;durP2;ratioP2;P2;SDS_P1;SDS_P2;PMS_P1;PMS_P2;Temp;Humidity;BMP_temperature;BMP_pressure;BME280_temperature;BME280_humidity;BME280_pressure;Samples;Min_cycle;Max_cycle;Signal;HPM_P1;HPM_P2
2021/12/30 00:00:18;;;;;;;3.58;1.13;;;17.80;81.30;;;;;;5023748;28;45347;-76
2021/12/30 00:02:45;;;;;;;5.15;1.30;;;17.80;81.30;;;;;;5029552;28;47039;-76
2021/12/30 00:05:13;;;;;;;3.72;1.30;;;17.80;81.20;;;;;;5024132;28;45296;-76
2021/12/30 00:07:42;;;;;;;4.32;1.50;;;17.80;81.10;;;;;;5021322;28;45440;-76
2021/12/30 00:10:10;;;;;;;5.40;1.70;;;17.80;81.00;;;;;;5028919;28;45462;-76
2021/12/30 00:12:36;;;;;;;4.20;1.48;;;17.80;81.00;;;;;;5027756;28;45404;-76
2021/12/30 00:15:07;;;;;;;4.03;1.10;;;17.80;81.00;;;;;;5026361;28;45298;-76
2021/12/30 00:17:34;;;;;;;4.65;1.60;;;17.80;80.80;;;;;;5028853;28;45237;-76
2021/12/30 00:20:01;;;;;;;3.72;1.17;;;17.90;80.80;;;;;;5026555;28;45289;-76
2021/12/30 00:22:29;;;;;;;3.97;1.45;;;17.90;80.60;;;;;;5026314;28;45433;-76
2021/12/30 00:24:57;;;;;;;4.00;1.20;;;17.90;80.50;;;;;;5028143;28;45336;-76
2021/12/30 00:27:24;;;;;;;4.70;1.38;;;17.90;80.40;;;;;;5027795;28;45281;-76
2021/12/30 00:29:51;;;;;;;3.75;1.30;;;17.90;80.50;;;;;;5029257;28;45352;-76
2021/12/30 00:32:18;;;;;;;5.35;1.52;;;17.90;80.30;;;;;;5025562;28;45638;-76
2021/12/30 00:34:45;;;;;;;4.90;1.42;;;17.90;80.20;;;;;;5028119;28;45147;-76
2021/12/30 00:37:12;;;;;;;5.15;1.60;;;17.90;80.10;;;;;;5029273;28;45309;-76
2021/12/30 00:39:39;;;;;;;4.68;1.30;;;17.90;80.10;;;;;;5028756;28;45274;-76
2021/12/30 00:42:07;;;;;;;3.47;1.50;;;17.90;80.20;;;;;;5028611;28;45522;-76
2021/12/30 00:44:34;;;;;;;4.55;1.60;;;17.80;80.20;;;;;;5026257;28;45849;-76
2021/12/30 00:47:02;;;;;;;8.65;1.63;;;17.90;80.30;;;;;;5027862;28;45273;-76
2021/12/30 00:49:29;;;;;;;3.97;1.38;;;17.80;80.30;;;;;;5029181;28;45476;-76
2021/12/30 00:51:56;;;;;;;6.55;1.90;;;17.90;80.30;;;;;;5027916;28;47368;-76
2021/12/30 00:54:23;;;;;;;4.03;1.67;;;17.80;80.10;;;;;;5026803;28;45223;-76
2021/12/30 00:56:50;;;;;;;4.43;1.50;;;17.90;80.20;;;;;;5026716;28;45357;-76
2021/12/30 00:59:19;;;;;;;7.22;1.92;;;17.90;80.30;;;;;;5021698;28;45864;-76
2021/12/30 01:01:46;;;;;;;6.18;1.75;;;17.80;80.30;;;;;;5025647;28;47913;-76
2021/12/30 01:04:13;;;;;;;3.97;1.52;;;17.80;80.10;;;;;;5025302;28;45497;-76
2021/12/30 01:06:40;;;;;;;5.82;1.70;;;17.80;80.20;;;;;;5027250;28;45281;-77
2021/12/30 01:09:07;;;;;;;5.93;1.70;;;17.80;80.10;;;;;;5027071;28;45218;-76
2021/12/30 01:11:34;;;;;;;4.72;1.42;;;17.90;80.20;;;;;;5026138;28;45334;-76
2021/12/30 01:14:05;;;;;;;4.85;1.35;;;17.80;80.00;;;;;;5028329;28;45119;-76
2021/12/30 01:16:41;;;;;;;5.97;1.65;;;17.80;80.00;;;;;;5027444;28;45272;-76
2021/12/30 01:19:22;;;;;;;4.25;1.40;;;17.80;80.00;;;;;;5028092;28;45416;-76
2021/12/30 01:21:52;;;;;;;2.92;1.35;;;17.80;80.00;;;;;;5028150;28;45563;-76
2021/12/30 01:24:19;;;;;;;5.05;1.38;;;17.90;80.10;;;;;;5046438;28;46208;-76
2021/12/30 01:26:46;;;;;;;4.53;1.58;;;17.80;80.00;;;;;;5034008;28;45389;-76
2021/12/30 01:29:13;;;;;;;2.53;1.05;;;17.80;80.00;;;;;;5028195;28;45219;-76
2021/12/30 01:31:41;;;;;;;4.70;1.33;;;17.80;80.10;;;;;;5027391;28;45506;-76
2021/12/30 01:34:08;;;;;;;5.13;1.52;;;17.80;80.30;;;;;;5027932;28;45175;-76
2021/12/30 01:36:35;;;;;;;4.60;1.23;;;17.80;80.30;;;;;;5027462;28;45233;-76
2021/12/30 01:39:02;;;;;;;2.75;1.10;;;17.80;80.50;;;;;;5028717;28;45420;-76
2021/12/30 01:41:29;;;;;;;4.10;1.20;;;17.80;80.50;;;;;;5027082;28;46262;-76
2021/12/30 01:43:55;;;;;;;3.70;1.30;;;17.80;80.50;;;;;;5027027;28;45202;-76
2021/12/30 01:46:23;;;;;;;3.42;1.17;;;17.80;80.60;;;;;;5026399;28;45425;-76
2021/12/30 01:48:51;;;;;;;3.95;1.10;;;17.80;80.70;;;;;;5028526;28;45440;-76
2021/12/30 01:51:18;;;;;;;2.50;1.17;;;17.80;80.80;;;;;;5030241;28;47367;-76
2021/12/30 01:53:45;;;;;;;4.55;1.10;;;17.80;80.80;;;;;;5026957;28;45263;-76
2021/12/30 01:56:11;;;;;;;4.57;1.00;;;17.80;80.80;;;;;;5027940;28;45251;-76
2021/12/30 01:58:38;;;;;;;2.97;1.05;;;17.80;80.90;;;;;;5028037;28;45179;-76
2021/12/30 02:01:05;;;;;;;2.58;0.98;;;17.80;80.80;;;;;;5027087;28;45211;-76
2021/12/30 02:03:32;;;;;;;3.08;1.30;;;17.80;80.80;;;;;;5026375;28;45261;-76
2021/12/30 02:06:01;;;;;;;4.75;1.33;;;17.90;80.90;;;;;;5028470;28;45384;-76
2021/12/30 02:08:28;;;;;;;2.75;1.17;;;17.90;80.80;;;;;;5024471;28;45392;-76
2021/12/30 02:10:54;;;;;;;2.97;0.93;;;17.90;80.80;;;;;;5028613;28;46118;-76
2021/12/30 02:13:22;;;;;;;4.00;1.10;;;17.90;80.80;;;;;;5027389;28;45185;-76
2021/12/30 02:15:49;;;;;;;4.10;1.05;;;17.90;80.80;;;;;;5028549;28;45451;-76
2021/12/30 02:18:17;;;;;;;3.55;1.20;;;17.90;80.90;;;;;;5026465;28;45260;-76
2021/12/30 02:20:48;;;;;;;3.03;1.00;;;17.90;80.80;;;;;;5027488;28;46262;-76
2021/12/30 02:23:17;;;;;;;3.10;1.10;;;17.90;80.90;;;;;;5033160;28;46242;-76
2021/12/30 02:25:45;;;;;;;3.30;1.10;;;17.90;80.90;;;;;;5027880;28;45130;-76
2021/12/30 02:28:15;;;;;;;2.50;0.90;;;17.90;81.00;;;;;;5027874;28;45286;-76
2021/12/30 02:30:43;;;;;;;2.92;0.90;;;17.90;81.20;;;;;;5026392;28;48292;-76
2021/12/30 02:33:10;;;;;;;2.95;1.40;;;17.90;81.30;;;;;;5026582;28;45255;-76
2021/12/30 02:35:37;;;;;;;2.80;1.10;;;17.90;81.40;;;;;;5027278;28;45143;-76
2021/12/30 02:38:06;;;;;;;2.20;1.20;;;17.90;81.40;;;;;;5027099;28;45310;-76
2021/12/30 02:40:36;;;;;;;2.00;1.10;;;17.90;81.50;;;;;;5034986;28;46022;-75
2021/12/30 02:43:05;;;;;;;4.10;1.02;;;17.90;81.70;;;;;;5047886;28;45222;-76
2021/12/30 02:45:32;;;;;;;4.47;1.13;;;17.90;81.90;;;;;;5026589;28;45376;-76
2021/12/30 02:47:59;;;;;;;3.08;1.00;;;17.90;81.90;;;;;;5027314;28;45199;-76
2021/12/30 02:50:26;;;;;;;3.00;1.00;;;17.90;81.90;;;;;;5024997;28;48262;-76
2021/12/30 02:52:53;;;;;;;2.80;1.05;;;17.90;82.10;;;;;;5027241;28;45404;-76
2021/12/30 02:55:21;;;;;;;2.33;0.88;;;17.90;82.00;;;;;;5027237;28;45281;-76
2021/12/30 02:57:48;;;;;;;1.95;0.77;;;17.90;82.00;;;;;;5027141;28;45350;-76
2021/12/30 03:00:16;;;;;;;2.97;0.80;;;17.90;82.20;;;;;;5027258;28;45237;-76
2021/12/30 03:02:42;;;;;;;1.67;0.95;;;17.90;82.40;;;;;;5025296;28;45455;-76
2021/12/30 03:05:14;;;;;;;3.35;1.10;;;17.90;82.60;;;;;;5027114;28;45202;-76
2021/12/30 03:07:41;;;;;;;1.73;0.90;;;17.90;82.40;;;;;;5025779;28;45315;-76
2021/12/30 03:10:15;;;;;;;1.88;0.93;;;17.90;82.80;;;;;;5025067;28;47804;-75
2021/12/30 03:12:44;;;;;;;2.92;1.10;;;17.90;82.70;;;;;;5027153;28;45446;-76
2021/12/30 03:15:12;;;;;;;1.13;0.75;;;17.90;82.80;;;;;;5026843;28;45494;-76
2021/12/30 03:17:40;;;;;;;3.10;1.30;;;18.00;82.90;;;;;;5027221;28;45119;-76
2021/12/30 03:20:09;;;;;;;1.38;0.82;;;17.90;82.90;;;;;;5026424;28;46161;-76
2021/12/30 03:22:37;;;;;;;1.05;0.65;;;17.90;83.00;;;;;;5029307;28;45348;-76
2021/12/30 03:25:06;;;;;;;1.52;0.70;;;17.90;82.90;;;;;;5046863;28;45352;-76
2021/12/30 03:27:32;;;;;;;2.30;1.02;;;17.90;83.10;;;;;;5031997;28;45201;-76
2021/12/30 03:30:01;;;;;;;4.22;0.77;;;17.90;83.30;;;;;;5026241;28;48123;-76
2021/12/30 03:32:28;;;;;;;0.68;0.50;;;17.90;83.40;;;;;;5021471;28;45341;-76
2021/12/30 03:34:55;;;;;;;1.83;0.90;;;17.90;83.60;;;;;;5029716;28;45319;-76
2021/12/30 03:37:22;;;;;;;0.68;0.57;;;17.90;83.60;;;;;;5033861;28;45456;-76
2021/12/30 03:39:49;;;;;;;0.93;0.70;;;17.90;83.70;;;;;;5029794;28;46211;-76
2021/12/30 03:42:16;;;;;;;2.17;0.77;;;17.90;83.50;;;;;;5029805;28;45333;-76
2021/12/30 03:44:43;;;;;;;1.00;0.68;;;17.90;83.80;;;;;;5030803;28;45373;-76
2021/12/30 03:47:15;;;;;;;3.03;1.00;;;17.90;83.50;;;;;;5027765;28;45514;-76
2021/12/30 03:49:44;;;;;;;1.55;0.80;;;17.90;83.50;;;;;;5029389;28;46514;-76
2021/12/30 03:52:11;;;;;;;1.50;0.73;;;17.90;84.40;;;;;;5029611;28;45535;-76
2021/12/30 03:54:38;;;;;;;1.55;0.82;;;17.90;83.60;;;;;;5030285;28;45226;-76
2021/12/30 03:57:05;;;;;;;1.48;0.70;;;18.00;83.50;;;;;;5030825;28;45316;-76
2021/12/30 03:59:32;;;;;;;0.82;0.52;;;17.90;83.90;;;;;;5029383;28;45422;-76
2021/12/30 04:01:59;;;;;;;2.13;0.90;;;18.00;84.10;;;;;;5029677;28;45131;-76
2021/12/30 04:04:27;;;;;;;2.17;0.75;;;18.00;84.00;;;;;;5030191;28;45393;-76
2021/12/30 04:06:54;;;;;;;1.30;0.63;;;17.90;84.00;;;;;;5027761;28;45282;-76
2021/12/30 04:09:21;;;;;;;1.48;0.80;;;17.90;84.00;;;;;;5029501;28;46384;-76
2021/12/30 04:11:48;;;;;;;1.10;0.60;;;17.90;84.20;;;;;;5029213;28;45225;-76
2021/12/30 04:14:16;;;;;;;1.05;0.70;;;17.90;84.30;;;;;;5029375;28;45174;-76
2021/12/30 04:16:43;;;;;;;1.10;0.80;;;17.90;84.70;;;;;;5030217;28;45228;-76
2021/12/30 04:19:10;;;;;;;1.30;0.70;;;17.90;84.60;;;;;;5029110;28;46602;-76
2021/12/30 04:21:38;;;;;;;1.23;0.70;;;17.90;84.80;;;;;;5033647;28;45255;-76
2021/12/30 04:24:05;;;;;;;0.95;0.60;;;17.90;85.10;;;;;;5038614;28;45285;-76
2021/12/30 04:26:32;;;;;;;0.90;0.43;;;17.90;84.90;;;;;;5030183;28;45194;-76
2021/12/30 04:28:59;;;;;;;1.08;0.68;;;17.90;85.10;;;;;;5028817;28;47033;-76
2021/12/30 04:31:26;;;;;;;0.95;0.60;;;17.90;85.20;;;;;;5029092;28;45533;-76
2021/12/30 04:33:52;;;;;;;1.48;0.70;;;17.90;85.20;;;;;;5028361;28;45281;-76
2021/12/30 04:36:19;;;;;;;1.02;0.52;;;17.90;85.00;;;;;;5028069;28;45257;-76
2021/12/30 04:38:47;;;;;;;0.82;0.60;;;17.90;85.00;;;;;;5028852;28;45562;-76
2021/12/30 04:41:14;;;;;;;0.50;0.40;;;17.90;84.70;;;;;;5027802;28;45567;-76
2021/12/30 04:43:41;;;;;;;0.70;0.40;;;17.90;85.00;;;;;;5028221;28;45221;-76
2021/12/30 04:46:08;;;;;;;0.30;0.30;;;17.90;84.90;;;;;;5028959;28;45305;-76
2021/12/30 04:48:35;;;;;;;1.08;0.50;;;17.90;84.90;;;;;;5023104;28;47541;-76
2021/12/30 04:51:02;;;;;;;0.52;0.50;;;17.90;84.90;;;;;;5029275;28;45196;-76
2021/12/30 04:53:29;;;;;;;0.52;0.40;;;17.90;85.40;;;;;;5027438;28;45244;-76
2021/12/30 04:55:57;;;;;;;0.55;0.40;;;17.90;85.60;;;;;;5028797;28;45237;-76
2021/12/30 04:58:24;;;;;;;0.32;0.32;;;17.90;85.40;;;;;;5029147;28;45511;-76
2021/12/30 05:00:51;;;;;;;0.40;0.40;;;17.90;86.00;;;;;;5028132;28;45143;-76
2021/12/30 05:03:20;;;;;;;0.40;0.32;;;17.90;86.60;;;;;;5027473;28;45160;-76
2021/12/30 05:05:49;;;;;;;0.50;0.40;;;17.90;86.70;;;;;;5029356;28;45255;-76
2021/12/30 05:08:18;;;;;;;0.40;0.40;;;17.90;86.80;;;;;;5024104;28;46651;-76
2021/12/30 05:10:45;;;;;;;1.25;0.50;;;17.90;87.30;;;;;;5027235;28;45238;-76
2021/12/30 05:13:15;;;;;;;0.30;0.30;;;17.90;87.50;;;;;;5029186;28;45177;-76
2021/12/30 05:15:42;;;;;;;0.57;0.25;;;17.90;87.70;;;;;;5248693;22;45746;-77
2021/12/30 05:18:12;;;;;;;0.90;0.30;;;17.90;87.80;;;;;;5027830;28;46747;-75
2021/12/30 05:20:41;;;;;;;0.47;0.40;;;17.90;88.10;;;;;;5028035;28;45172;-75
2021/12/30 05:23:09;;;;;;;0.88;0.43;;;17.90;88.20;;;;;;5029528;28;46548;-75
2021/12/30 05:25:37;;;;;;;0.45;0.40;;;17.90;88.20;;;;;;5028710;28;45246;-75
2021/12/30 05:28:05;;;;;;;0.20;0.20;;;17.90;88.10;;;;;;5028027;28;48227;-75
2021/12/30 05:30:33;;;;;;;0.40;0.25;;;17.90;88.00;;;;;;5029091;28;45272;-75
2021/12/30 05:33:01;;;;;;;0.40;0.35;;;17.90;88.70;;;;;;5027564;28;45312;-75
2021/12/30 05:35:28;;;;;;;0.52;0.38;;;17.90;88.40;;;;;;5029164;28;45242;-75
2021/12/30 05:37:55;;;;;;;0.22;0.20;;;17.90;88.40;;;;;;5028588;28;45314;-75
2021/12/30 05:40:23;;;;;;;0.22;0.22;;;17.90;89.70;;;;;;5029275;28;45320;-75
2021/12/30 05:42:51;;;;;;;0.40;0.32;;;17.90;90.00;;;;;;5020421;28;45313;-75
2021/12/30 05:45:19;;;;;;;0.30;0.30;;;18.00;89.70;;;;;;5029017;28;45427;-75
2021/12/30 05:47:49;;;;;;;0.28;0.20;;;18.00;89.60;;;;;;5028282;28;47288;-75
2021/12/30 05:50:20;;;;;;;0.35;0.35;;;18.00;89.30;;;;;;5027210;28;45416;-75
2021/12/30 05:52:47;;;;;;;0.65;0.30;;;18.00;89.40;;;;;;5009227;28;45254;-75
2021/12/30 05:55:15;;;;;;;1.00;0.20;;;18.00;89.80;;;;;;5025507;28;45428;-75
2021/12/30 05:57:42;;;;;;;0.28;0.20;;;18.00;89.30;;;;;;5031333;28;47909;-75
2021/12/30 06:00:12;;;;;;;0.85;0.20;;;18.00;89.80;;;;;;5030868;28;45524;-75
2021/12/30 06:02:39;;;;;;;0.20;0.20;;;18.00;89.80;;;;;;5027048;28;45331;-75
2021/12/30 06:05:09;;;;;;;0.13;0.10;;;18.00;89.50;;;;;;5037171;28;45248;-75
2021/12/30 06:07:36;;;;;;;0.20;0.20;;;18.00;89.70;;;;;;5036604;28;47821;-75
2021/12/30 06:10:05;;;;;;;0.10;0.10;;;18.00;88.90;;;;;;5028000;28;46054;-75
2021/12/30 06:12:32;;;;;;;0.30;0.20;;;18.00;88.90;;;;;;5028681;28;45130;-75
2021/12/30 06:14:59;;;;;;;0.15;0.15;;;18.00;90.10;;;;;;5027747;28;45146;-75
2021/12/30 06:17:26;;;;;;;0.28;0.20;;;17.90;89.60;;;;;;5026116;28;47423;-75
2021/12/30 06:19:53;;;;;;;0.75;0.32;;;17.90;89.80;;;;;;5030587;28;45213;-75
2021/12/30 06:22:21;;;;;;;2.25;0.30;;;18.00;89.80;;;;;;5028171;28;45296;-75
2021/12/30 06:24:48;;;;;;;0.10;0.10;;;18.10;90.10;;;;;;5028124;28;45497;-75
2021/12/30 06:27:15;;;;;;;0.30;0.20;;;17.90;90.00;;;;;;5026423;28;48169;-75
2021/12/30 06:29:42;;;;;;;0.10;0.10;;;18.00;90.30;;;;;;5026695;28;46170;-75
2021/12/30 06:32:09;;;;;;;0.28;0.20;;;17.90;90.20;;;;;;5026943;28;45238;-75
2021/12/30 06:34:36;;;;;;;0.10;0.10;;;17.90;90.20;;;;;;5026987;28;45488;-75
2021/12/30 06:37:04;;;;;;;0.40;0.20;;;18.00;90.10;;;;;;5027198;28;45303;-75
2021/12/30 06:39:33;;;;;;;0.45;0.20;;;17.90;90.20;;;;;;5036945;28;46798;-75
2021/12/30 06:42:00;;;;;;;0.25;0.20;;;17.90;90.40;;;;;;5034680;28;45351;-75
2021/12/30 06:44:27;;;;;;;0.13;0.13;;;17.90;90.00;;;;;;5048222;28;45146;-75
2021/12/30 06:46:57;;;;;;;0.45;0.20;;;18.00;90.10;;;;;;5032471;28;45987;-75
2021/12/30 06:49:24;;;;;;;0.30;0.30;;;18.00;90.00;;;;;;5027856;28;45303;-75
2021/12/30 06:51:52;;;;;;;0.10;0.10;;;18.00;90.20;;;;;;5024568;28;45359;-75
2021/12/30 06:54:19;;;;;;;0.30;0.20;;;18.00;90.10;;;;;;5026798;28;45399;-75
2021/12/30 06:56:48;;;;;;;0.25;0.10;;;18.00;90.10;;;;;;5027631;28;47017;-75
2021/12/30 06:59:15;;;;;;;0.20;0.20;;;18.00;89.70;;;;;;5027445;28;45325;-75
2021/12/30 07:01:44;;;;;;;0.10;0.10;;;18.10;90.00;;;;;;5025518;28;45232;-75
2021/12/30 07:04:12;;;;;;;0.20;0.20;;;18.00;90.00;;;;;;5027721;28;45251;-75
2021/12/30 07:06:39;;;;;;;0.28;0.28;;;18.10;90.00;;;;;;5026624;28;47879;-75
2021/12/30 07:09:06;;;;;;;0.20;0.13;;;18.10;90.00;;;;;;5026784;28;45137;-75
2021/12/30 07:11:33;;;;;;;0.20;0.15;;;18.10;90.10;;;;;;5035035;28;45371;-75
2021/12/30 07:14:01;;;;;;;0.20;0.20;;;18.10;90.00;;;;;;5044177;28;45211;-75
2021/12/30 07:16:28;;;;;;;0.10;0.10;;;18.10;90.00;;;;;;5031310;28;46298;-75
2021/12/30 07:18:56;;;;;;;0.10;0.10;;;18.10;90.40;;;;;;5030299;28;45316;-75
2021/12/30 07:21:24;;;;;;;0.17;0.15;;;18.10;90.00;;;;;;5031105;28;45243;-74
2021/12/30 07:23:50;;;;;;;0.32;0.22;;;18.10;90.10;;;;;;5029411;28;45362;-75
2021/12/30 07:26:17;;;;;;;0.17;0.17;;;18.10;90.40;;;;;;5029580;28;46971;-75
2021/12/30 07:28:44;;;;;;;0.77;0.30;;;18.00;90.10;;;;;;5037011;28;45296;-75
2021/12/30 07:31:13;;;;;;;0.80;0.38;;;18.00;90.20;;;;;;5037930;28;45404;-75
2021/12/30 07:33:40;;;;;;;0.30;0.30;;;18.10;90.20;;;;;;5034254;28;45316;-75
2021/12/30 07:36:07;;;;;;;0.32;0.20;;;18.00;90.30;;;;;;5041798;28;47342;-75
2021/12/30 07:38:34;;;;;;;0.35;0.15;;;18.00;90.30;;;;;;5041022;28;45608;-75
2021/12/30 07:41:02;;;;;;;0.30;0.20;;;18.00;90.50;;;;;;5031123;28;45196;-75
2021/12/30 07:43:29;;;;;;;0.25;0.20;;;18.00;90.10;;;;;;5028447;28;45322;-75
2021/12/30 07:45:56;;;;;;;0.28;0.28;;;18.00;90.50;;;;;;5030543;28;47362;-75
2021/12/30 07:48:25;;;;;;;0.10;0.10;;;17.90;90.50;;;;;;5028920;28;45388;-74
2021/12/30 07:50:52;;;;;;;0.65;0.10;;;18.00;90.40;;;;;;5029667;28;45319;-75
2021/12/30 07:53:20;;;;;;;0.20;0.20;;;18.00;90.10;;;;;;5024885;28;45528;-75
2021/12/30 07:55:47;;;;;;;0.10;0.10;;;18.00;90.00;;;;;;5030654;28;47384;-75
2021/12/30 07:58:14;;;;;;;0.10;0.10;;;18.00;90.20;;;;;;5028395;28;45256;-75
2021/12/30 08:00:41;;;;;;;0.20;0.15;;;18.00;90.50;;;;;;5029889;28;45422;-75
2021/12/30 08:03:08;;;;;;;0.70;0.20;;;18.00;90.40;;;;;;5027911;28;45451;-75
2021/12/30 08:05:37;;;;;;;0.20;0.10;;;18.00;90.70;;;;;;5029411;28;47022;-75
2021/12/30 08:08:04;;;;;;;0.57;0.10;;;17.90;91.00;;;;;;5029849;28;45247;-75
2021/12/30 08:10:31;;;;;;;0.10;0.10;;;17.90;91.30;;;;;;5027233;28;45140;-75
2021/12/30 08:12:58;;;;;;;0.10;0.10;;;17.90;91.20;;;;;;5022082;28;45407;-75
2021/12/30 08:15:25;;;;;;;0.10;0.10;;;17.90;91.10;;;;;;5023838;28;47429;-75
2021/12/30 08:17:52;;;;;;;0.20;0.20;;;17.90;91.40;;;;;;5024284;28;45381;-75
2021/12/30 08:20:22;;;;;;;0.00;0.00;;;17.90;91.20;;;;;;5027903;28;45385;-74
2021/12/30 08:22:52;;;;;;;0.20;0.13;;;17.90;91.30;;;;;;5024861;28;45380;-75
2021/12/30 08:25:20;;;;;;;0.20;0.10;;;17.90;91.20;;;;;;5022354;28;47910;-75
2021/12/30 08:27:48;;;;;;;0.10;0.10;;;17.90;91.30;;;;;;5016869;28;45320;-75
2021/12/30 08:30:18;;;;;;;0.20;0.17;;;17.90;91.10;;;;;;5029471;28;45240;-75
2021/12/30 08:32:46;;;;;;;0.20;0.20;;;18.00;90.80;;;;;;5029213;28;45367;-75
2021/12/30 08:35:14;;;;;;;0.03;0.03;;;18.00;91.00;;;;;;5033516;28;46192;-75
2021/12/30 08:37:42;;;;;;;0.17;0.17;;;18.00;90.90;;;;;;5024508;28;45256;-75
2021/12/30 08:40:13;;;;;;;0.65;0.15;;;18.00;90.80;;;;;;5021602;28;45416;-75
2021/12/30 08:42:41;;;;;;;0.10;0.10;;;18.00;90.70;;;;;;5028526;28;45178;-75
2021/12/30 08:45:10;;;;;;;0.17;0.10;;;18.00;91.00;;;;;;5028881;28;45334;-75
2021/12/30 08:47:37;;;;;;;0.20;0.20;;;18.00;90.80;;;;;;5021902;28;45282;-75
2021/12/30 08:50:06;;;;;;;0.52;0.20;;;18.00;91.10;;;;;;5035969;28;45374;-75
2021/12/30 08:52:33;;;;;;;0.60;0.22;;;18.00;90.90;;;;;;5024149;28;45446;-75
2021/12/30 08:55:04;;;;;;;0.20;0.20;;;18.00;91.10;;;;;;5023452;28;47026;-74
2021/12/30 08:57:33;;;;;;;0.25;0.10;;;18.00;91.30;;;;;;5025828;28;45483;-75
2021/12/30 09:00:01;;;;;;;0.20;0.10;;;18.00;91.20;;;;;;5021205;28;45312;-75
2021/12/30 09:02:28;;;;;;;0.20;0.13;;;18.00;91.30;;;;;;5030483;28;45086;-75
2021/12/30 09:04:55;;;;;;;0.85;0.10;;;18.00;91.40;;;;;;5034930;28;46311;-75
2021/12/30 09:07:22;;;;;;;0.13;0.13;;;17.90;91.60;;;;;;5033561;28;45520;-75
2021/12/30 09:09:49;;;;;;;0.35;0.20;;;18.00;91.40;;;;;;5027240;28;45345;-75
2021/12/30 09:12:17;;;;;;;0.20;0.10;;;18.00;91.40;;;;;;5023783;28;45650;-74
2021/12/30 09:14:46;;;;;;;0.10;0.10;;;18.00;91.40;;;;;;5023811;28;46439;-75
2021/12/30 09:17:13;;;;;;;0.10;0.10;;;18.00;91.20;;;;;;5038483;28;45348;-75
2021/12/30 09:19:40;;;;;;;0.63;0.20;;;18.00;91.30;;;;;;5023075;28;45317;-75
2021/12/30 09:22:07;;;;;;;0.00;0.00;;;18.00;91.40;;;;;;5027410;28;45221;-74
2021/12/30 09:24:33;;;;;;;0.35;0.25;;;18.00;91.30;;;;;;5038672;28;46183;-74
2021/12/30 09:27:01;;;;;;;0.13;0.13;;;17.90;91.20;;;;;;5029957;28;45234;-75
2021/12/30 09:29:28;;;;;;;0.93;0.20;;;18.00;91.00;;;;;;5039561;28;45320;-75
2021/12/30 09:31:58;;;;;;;0.75;0.10;;;18.00;91.20;;;;;;5026583;28;45333;-75
2021/12/30 09:34:26;;;;;;;0.28;0.20;;;18.00;91.50;;;;;;5024021;28;46924;-75
2021/12/30 09:36:53;;;;;;;0.10;0.10;;;17.90;91.70;;;;;;5025950;28;45814;-75
2021/12/30 09:39:20;;;;;;;0.35;0.20;;;17.90;91.70;;;;;;5020851;28;45248;-75
2021/12/30 09:41:48;;;;;;;0.13;0.10;;;17.90;92.00;;;;;;5037432;28;45479;-75
2021/12/30 09:44:16;;;;;;;0.40;0.20;;;17.90;92.00;;;;;;5027429;28;46460;-74
2021/12/30 09:46:44;;;;;;;0.20;0.13;;;17.90;92.10;;;;;;5028096;28;45325;-75
2021/12/30 09:49:17;;;;;;;0.13;0.13;;;17.90;92.10;;;;;;5028892;28;45302;-75
2021/12/30 09:51:44;;;;;;;0.55;0.20;;;17.90;92.10;;;;;;5026366;28;45374;-74
2021/12/30 09:54:11;;;;;;;0.40;0.20;;;17.90;92.10;;;;;;5027164;28;46598;-75
2021/12/30 09:56:38;;;;;;;0.13;0.13;;;17.90;92.20;;;;;;5025552;28;45126;-75
2021/12/30 09:59:06;;;;;;;0.10;0.10;;;17.90;92.00;;;;;;5027550;28;45178;-74
2021/12/30 10:01:33;;;;;;;0.10;0.10;;;17.90;92.00;;;;;;5027240;28;45274;-75
2021/12/30 10:04:04;;;;;;;0.20;0.20;;;17.90;92.10;;;;;;5030036;28;45270;-75
2021/12/30 10:06:34;;;;;;;0.20;0.10;;;17.90;92.10;;;;;;5038579;28;45441;-75
2021/12/30 10:09:09;;;;;;;0.15;0.15;;;17.90;92.00;;;;;;5026697;28;45581;-74
2021/12/30 10:11:47;;;;;;;0.10;0.10;;;17.90;92.10;;;;;;5024537;28;45524;-75
2021/12/30 10:14:27;;;;;;;0.20;0.10;;;17.90;92.20;;;;;;5027238;28;47017;-74
2021/12/30 10:17:16;;;;;;;0.22;0.20;;;17.90;92.00;;;;;;5025869;28;45308;-74
2021/12/30 10:19:44;;;;;;;7.60;0.45;;;18.00;90.80;;;;;;5025670;28;45327;-74
2021/12/30 10:22:13;;;;;;;2.33;0.20;;;18.10;91.40;;;;;;5029601;28;45301;-74
2021/12/30 10:24:41;;;;;;;0.40;0.22;;;18.10;90.90;;;;;;5026062;28;46083;-74
2021/12/30 10:27:09;;;;;;;2.20;0.40;;;18.20;90.70;;;;;;5021181;28;45933;-73
2021/12/30 10:29:42;;;;;;;3.67;0.50;;;18.20;90.40;;;;;;5027214;28;45313;-73
2021/12/30 10:32:17;;;;;;;23.98;1.38;;;18.20;91.20;;;;;;5024285;28;45341;-67
2021/12/30 10:35:05;;;;;;;29.42;1.58;;;18.30;92.10;;;;;;5023213;28;47423;-70
2021/12/30 10:37:33;;;;;;;32.42;1.90;;;18.30;93.10;;;;;;5025351;28;45320;-70
2021/12/30 10:40:00;;;;;;;23.15;1.55;;;18.40;92.50;;;;;;5027139;28;45245;-70
2021/12/30 10:42:30;;;;;;;15.63;0.88;;;18.30;91.60;;;;;;5026831;28;45349;-70
2021/12/30 10:44:59;;;;;;;7.50;1.00;;;18.30;91.30;;;;;;5023941;28;45249;-70
2021/12/30 10:47:28;;;;;;;6.72;1.00;;;18.30;91.40;;;;;;5026609;28;45301;-70
2021/12/30 10:49:59;;;;;;;6.72;0.70;;;18.30;91.30;;;;;;5025844;28;45261;-70
2021/12/30 10:52:26;;;;;;;3.35;0.80;;;18.30;91.00;;;;;;5016075;28;45177;-71
2021/12/30 10:54:55;;;;;;;7.45;0.75;;;18.30;90.80;;;;;;5033721;28;45985;-71
2021/12/30 10:57:21;;;;;;;5.28;0.52;;;18.20;90.60;;;;;;5027200;28;45210;-70
2021/12/30 10:59:49;;;;;;;5.13;0.80;;;18.30;90.20;;;;;;5026725;28;45510;-71
2021/12/30 11:02:18;;;;;;;0.82;0.52;;;18.30;90.20;;;;;;5024778;28;45392;-70
2021/12/30 11:04:49;;;;;;;2.53;0.63;;;18.20;90.10;;;;;;5024210;28;46698;-70
2021/12/30 11:07:19;;;;;;;2.80;0.50;;;18.20;90.00;;;;;;5025095;28;45229;-70
2021/12/30 11:09:47;;;;;;;9.85;0.55;;;18.20;89.90;;;;;;5026309;28;45631;-73
2021/12/30 11:12:16;;;;;;;5.90;0.98;;;18.30;89.70;;;;;;5024507;28;45555;-74
2021/12/30 11:14:43;;;;;;;5.22;0.95;;;18.30;89.60;;;;;;5019204;28;45447;-75
2021/12/30 11:17:15;;;;;;;6.03;0.77;;;18.30;90.00;;;;;;5020342;28;45387;-74
2021/12/30 11:19:43;;;;;;;5.05;0.82;;;18.30;90.20;;;;;;5024847;28;45348;-74
2021/12/30 11:22:13;;;;;;;12.20;0.65;;;18.30;90.30;;;;;;5025949;28;45385;-75
2021/12/30 11:24:41;;;;;;;17.05;0.90;;;18.30;90.30;;;;;;5024202;28;47440;-75
2021/12/30 11:27:10;;;;;;;7.60;0.98;;;18.20;90.20;;;;;;5031761;28;45798;-75
2021/12/30 11:29:42;;;;;;;6.35;0.73;;;18.20;90.30;;;;;;5023319;28;45260;-75
2021/12/30 11:32:11;;;;;;;2.97;0.63;;;18.20;90.50;;;;;;5027094;28;45845;-75
2021/12/30 11:34:38;;;;;;;1.60;0.50;;;18.20;90.40;;;;;;5022706;28;48675;-74
2021/12/30 11:37:06;;;;;;;3.70;0.63;;;18.20;90.60;;;;;;5024441;28;45311;-74
2021/12/30 11:39:33;;;;;;;4.20;0.43;;;18.20;90.70;;;;;;5020971;28;45349;-75
2021/12/30 11:42:05;;;;;;;1.33;0.43;;;18.10;90.60;;;;;;5022365;28;45257;-74
2021/12/30 11:44:45;;;;;;;1.40;0.50;;;18.10;90.60;;;;;;5023992;28;47652;-74
2021/12/30 11:47:41;;;;;;;2.20;0.30;;;18.10;90.70;;;;;;5024755;28;45238;-74
2021/12/30 11:50:15;;;;;;;1.42;0.50;;;18.10;90.70;;;;;;5022561;28;45321;-74
2021/12/30 11:52:54;;;;;;;2.97;0.70;;;18.10;90.80;;;;;;5020210;28;45178;-74
2021/12/30 11:55:44;;;;;;;3.88;0.52;;;18.10;90.70;;;;;;5022419;28;45757;-74
2021/12/30 11:58:36;;;;;;;1.52;0.60;;;18.20;90.50;;;;;;5022467;28;45245;-74
2021/12/30 12:01:27;;;;;;;1.45;0.45;;;18.20;90.60;;;;;;5027809;28;45284;-75
2021/12/30 12:03:58;;;;;;;1.55;0.50;;;18.20;90.50;;;;;;5021207;28;45419;-75
2021/12/30 12:06:31;;;;;;;3.83;0.57;;;18.20;90.60;;;;;;5027678;28;48144;-75
2021/12/30 12:09:01;;;;;;;2.08;0.68;;;18.20;90.50;;;;;;5030347;28;45309;-75
2021/12/30 12:11:30;;;;;;;1.10;0.55;;;18.20;90.50;;;;;;5018850;28;45710;-75
2021/12/30 12:14:14;;;;;;;3.33;0.50;;;18.20;90.40;;;;;;5020256;28;45520;-75
2021/12/30 12:16:48;;;;;;;0.95;0.47;;;18.20;90.40;;;;;;5021339;28;46309;-75
2021/12/30 12:19:16;;;;;;;1.35;0.52;;;18.20;90.30;;;;;;5024339;28;45658;-75
2021/12/30 12:21:45;;;;;;;2.15;0.50;;;18.20;90.40;;;;;;5024625;28;45649;-75
2021/12/30 12:24:41;;;;;;;1.80;0.50;;;18.20;90.40;;;;;;5028792;28;45285;-75
2021/12/30 12:27:30;;;;;;;1.70;0.63;;;18.10;90.50;;;;;;5016955;28;46284;-74
2021/12/30 12:30:00;;;;;;;1.30;0.60;;;18.10;90.70;;;;;;5026536;28;45340;-76
2021/12/30 12:32:39;;;;;;;0.88;0.40;;;18.10;90.70;;;;;;5022882;28;45560;-76
2021/12/30 12:35:25;;;;;;;0.77;0.50;;;18.10;90.50;;;;;;5027289;28;45332;-75
2021/12/30 12:37:56;;;;;;;1.42;0.55;;;18.10;90.60;;;;;;5026464;28;46495;-75
2021/12/30 12:40:29;;;;;;;1.40;0.57;;;18.10;90.50;;;;;;5021657;28;45816;-75
2021/12/30 12:42:59;;;;;;;0.98;0.40;;;18.10;90.50;;;;;;5021176;28;45357;-76
2021/12/30 12:45:29;;;;;;;1.65;0.60;;;18.20;90.40;;;;;;5024537;28;45301;-75
2021/12/30 12:48:24;;;;;;;0.47;0.38;;;18.20;90.40;;;;;;5026064;28;47919;-75
2021/12/30 12:50:53;;;;;;;2.55;0.65;;;18.20;90.40;;;;;;5026079;28;46159;-75
2021/12/30 12:53:23;;;;;;;1.10;0.40;;;18.20;90.40;;;;;;5025026;28;45355;-75